Olamon, Maine
Current Conditions -  °F | °C
As of 12:53 AM on Saturday 29 Nov 2014 (Local Time) from KBGR Reporting Station
Few Clouds Few Clouds  
Wind Chill:   Ceiling: Unl
Heat Index: 18°   Visibility: 10mi
Dew Point: 11°   Wind: 7mph
Humidity: 74%   Direction: 270°W
Pressure: 30.14"   Gusts: NA
Location:  45.12°N, 68.6°W
Report Text: KBGR 290553Z 27006KT 10SM FEW040 M08/M12 A3014 RMK AO2 SLP210 4/009 T10781117 11044 21111 53013
Loading
Personal Weather Stations






























Interactive Weather Map New forecast layout! Learn more

10-Day Weather Forecast

Advertisements
Track Severe Weather on mobile